sensor_id;sensor_type;location;lat;lon;timestamp;P1;durP1;ratioP1;P2;durP2;ratioP2
10410;SDS011;5251;52.112;8.606;2023-09-18T00:01:11;6.15;;;4.55;;
10410;SDS011;5251;52.112;8.606;2023-09-18T00:03:37;4.78;;;4.32;;
10410;SDS011;5251;52.112;8.606;2023-09-18T00:06:02;7.97;;;4.45;;
10410;SDS011;5251;52.112;8.606;2023-09-18T00:08:28;5.07;;;4.38;;
10410;SDS011;5251;52.112;8.606;2023-09-18T00:10:54;5.13;;;4.43;;
10410;SDS011;5251;52.112;8.606;2023-09-18T00:13:20;5.35;;;4.85;;
10410;SDS011;5251;52.112;8.606;2023-09-18T00:15:46;5.28;;;4.35;;
10410;SDS011;5251;52.112;8.606;2023-09-18T00:18:13;5.90;;;4.63;;
10410;SDS011;5251;52.112;8.606;2023-09-18T00:20:40;5.38;;;4.80;;
10410;SDS011;5251;52.112;8.606;2023-09-18T00:23:05;5.85;;;4.22;;
10410;SDS011;5251;52.112;8.606;2023-09-18T00:25:31;5.03;;;4.53;;
10410;SDS011;5251;52.112;8.606;2023-09-18T00:27:57;6.13;;;4.88;;
10410;SDS011;5251;52.112;8.606;2023-09-18T00:30:22;7.53;;;4.95;;
10410;SDS011;5251;52.112;8.606;2023-09-18T00:32:48;7.32;;;4.63;;
10410;SDS011;5251;52.112;8.606;2023-09-18T00:35:15;4.88;;;4.03;;
10410;SDS011;5251;52.112;8.606;2023-09-18T00:37:41;5.90;;;4.63;;
10410;SDS011;5251;52.112;8.606;2023-09-18T00:40:08;6.20;;;4.40;;
10410;SDS011;5251;52.112;8.606;2023-09-18T00:42:34;4.38;;;3.97;;
10410;SDS011;5251;52.112;8.606;2023-09-18T00:44:59;5.30;;;4.70;;
10410;SDS011;5251;52.112;8.606;2023-09-18T00:47:25;5.03;;;4.53;;
10410;SDS011;5251;52.112;8.606;2023-09-18T00:49:51;5.88;;;4.80;;
10410;SDS011;5251;52.112;8.606;2023-09-18T00:52:18;5.30;;;4.80;;
10410;SDS011;5251;52.112;8.606;2023-09-18T00:54:45;5.78;;;4.60;;
10410;SDS011;5251;52.112;8.606;2023-09-18T00:57:13;5.20;;;4.70;;
10410;SDS011;5251;52.112;8.606;2023-09-18T00:59:39;5.32;;;4.18;;
10410;SDS011;5251;52.112;8.606;2023-09-18T01:02:05;5.00;;;4.50;;
10410;SDS011;5251;52.112;8.606;2023-09-18T01:04:31;6.25;;;4.53;;
10410;SDS011;5251;52.112;8.606;2023-09-18T01:06:59;5.10;;;4.60;;
10410;SDS011;5251;52.112;8.606;2023-09-18T01:09:28;6.53;;;4.35;;
10410;SDS011;5251;52.112;8.606;2023-09-18T01:12:03;4.78;;;4.35;;
10410;SDS011;5251;52.112;8.606;2023-09-18T01:14:43;5.07;;;4.13;;
10410;SDS011;5251;52.112;8.606;2023-09-18T01:17:37;4.75;;;4.35;;
10410;SDS011;5251;52.112;8.606;2023-09-18T01:20:09;4.85;;;4.45;;
10410;SDS011;5251;52.112;8.606;2023-09-18T01:22:36;4.95;;;4.22;;
10410;SDS011;5251;52.112;8.606;2023-09-18T01:25:01;5.75;;;4.60;;
10410;SDS011;5251;52.112;8.606;2023-09-18T01:27:27;5.05;;;4.40;;
10410;SDS011;5251;52.112;8.606;2023-09-18T01:29:53;5.05;;;4.43;;
10410;SDS011;5251;52.112;8.606;2023-09-18T01:32:19;5.07;;;4.57;;
10410;SDS011;5251;52.112;8.606;2023-09-18T01:34:47;5.15;;;4.65;;
10410;SDS011;5251;52.112;8.606;2023-09-18T01:37:15;6.32;;;4.40;;
10410;SDS011;5251;52.112;8.606;2023-09-18T01:39:44;6.78;;;4.50;;
10410;SDS011;5251;52.112;8.606;2023-09-18T01:42:12;6.10;;;4.43;;
10410;SDS011;5251;52.112;8.606;2023-09-18T01:44:37;5.03;;;4.35;;
10410;SDS011;5251;52.112;8.606;2023-09-18T01:47:04;4.70;;;4.15;;
10410;SDS011;5251;52.112;8.606;2023-09-18T01:49:32;4.78;;;4.35;;
10410;SDS011;5251;52.112;8.606;2023-09-18T01:51:59;6.38;;;4.57;;
10410;SDS011;5251;52.112;8.606;2023-09-18T01:54:25;4.32;;;3.97;;
10410;SDS011;5251;52.112;8.606;2023-09-18T01:56:51;6.65;;;4.50;;
10410;SDS011;5251;52.112;8.606;2023-09-18T01:59:18;5.35;;;4.85;;
10410;SDS011;5251;52.112;8.606;2023-09-18T02:01:44;4.60;;;4.20;;
10410;SDS011;5251;52.112;8.606;2023-09-18T02:04:10;5.28;;;4.60;;
10410;SDS011;5251;52.112;8.606;2023-09-18T02:06:36;5.55;;;4.68;;
10410;SDS011;5251;52.112;8.606;2023-09-18T02:09:01;5.20;;;4.70;;
10410;SDS011;5251;52.112;8.606;2023-09-18T02:11:28;5.45;;;4.40;;
10410;SDS011;5251;52.112;8.606;2023-09-18T02:13:54;5.70;;;4.60;;
10410;SDS011;5251;52.112;8.606;2023-09-18T02:16:19;4.88;;;4.38;;
10410;SDS011;5251;52.112;8.606;2023-09-18T02:18:49;5.55;;;4.20;;
10410;SDS011;5251;52.112;8.606;2023-09-18T02:21:21;4.97;;;4.25;;
10410;SDS011;5251;52.112;8.606;2023-09-18T02:23:50;5.10;;;4.60;;
10410;SDS011;5251;52.112;8.606;2023-09-18T02:26:17;5.47;;;4.22;;
10410;SDS011;5251;52.112;8.606;2023-09-18T02:28:45;5.35;;;4.47;;
10410;SDS011;5251;52.112;8.606;2023-09-18T02:31:11;5.07;;;4.57;;
10410;SDS011;5251;52.112;8.606;2023-09-18T02:33:37;6.55;;;4.50;;
10410;SDS011;5251;52.112;8.606;2023-09-18T02:36:03;4.85;;;4.28;;
10410;SDS011;5251;52.112;8.606;2023-09-18T02:38:29;5.50;;;4.47;;
10410;SDS011;5251;52.112;8.606;2023-09-18T02:40:55;5.07;;;4.40;;
10410;SDS011;5251;52.112;8.606;2023-09-18T02:43:22;5.20;;;4.53;;
10410;SDS011;5251;52.112;8.606;2023-09-18T02:45:48;5.80;;;4.90;;
10410;SDS011;5251;52.112;8.606;2023-09-18T02:48:15;4.47;;;4.07;;
10410;SDS011;5251;52.112;8.606;2023-09-18T02:50:41;5.10;;;4.60;;
10410;SDS011;5251;52.112;8.606;2023-09-18T02:53:07;5.50;;;4.93;;
10410;SDS011;5251;52.112;8.606;2023-09-18T02:55:36;4.80;;;4.22;;
10410;SDS011;5251;52.112;8.606;2023-09-18T02:58:02;6.85;;;4.47;;
10410;SDS011;5251;52.112;8.606;2023-09-18T03:00:28;5.50;;;5.00;;
10410;SDS011;5251;52.112;8.606;2023-09-18T03:02:53;5.80;;;4.57;;
10410;SDS011;5251;52.112;8.606;2023-09-18T03:05:19;8.43;;;4.72;;
10410;SDS011;5251;52.112;8.606;2023-09-18T03:07:45;6.10;;;4.43;;
10410;SDS011;5251;52.112;8.606;2023-09-18T03:10:10;4.82;;;4.32;;
10410;SDS011;5251;52.112;8.606;2023-09-18T03:12:39;6.28;;;4.78;;
10410;SDS011;5251;52.112;8.606;2023-09-18T03:15:05;5.75;;;4.68;;
10410;SDS011;5251;52.112;8.606;2023-09-18T03:17:31;4.72;;;4.32;;
10410;SDS011;5251;52.112;8.606;2023-09-18T03:19:57;4.90;;;4.40;;
10410;SDS011;5251;52.112;8.606;2023-09-18T03:22:23;6.32;;;4.15;;
10410;SDS011;5251;52.112;8.606;2023-09-18T03:24:48;4.75;;;4.35;;
10410;SDS011;5251;52.112;8.606;2023-09-18T03:27:14;6.75;;;4.70;;
10410;SDS011;5251;52.112;8.606;2023-09-18T03:29:40;6.72;;;3.95;;
10410;SDS011;5251;52.112;8.606;2023-09-18T03:32:05;5.05;;;4.65;;
10410;SDS011;5251;52.112;8.606;2023-09-18T03:34:31;6.72;;;4.28;;
10410;SDS011;5251;52.112;8.606;2023-09-18T03:36:57;6.68;;;4.50;;
10410;SDS011;5251;52.112;8.606;2023-09-18T03:39:22;5.55;;;4.70;;
10410;SDS011;5251;52.112;8.606;2023-09-18T03:41:48;5.13;;;4.60;;
10410;SDS011;5251;52.112;8.606;2023-09-18T03:44:13;6.07;;;4.43;;
10410;SDS011;5251;52.112;8.606;2023-09-18T03:46:41;5.10;;;4.45;;
10410;SDS011;5251;52.112;8.606;2023-09-18T03:49:06;4.63;;;4.10;;
10410;SDS011;5251;52.112;8.606;2023-09-18T03:51:32;4.47;;;3.83;;
10410;SDS011;5251;52.112;8.606;2023-09-18T03:53:58;7.60;;;4.60;;
10410;SDS011;5251;52.112;8.606;2023-09-18T03:56:23;6.78;;;4.38;;
10410;SDS011;5251;52.112;8.606;2023-09-18T03:58:49;6.78;;;4.50;;
10410;SDS011;5251;52.112;8.606;2023-09-18T04:01:15;6.22;;;4.38;;
10410;SDS011;5251;52.112;8.606;2023-09-18T04:03:41;8.35;;;4.10;;
10410;SDS011;5251;52.112;8.606;2023-09-18T04:06:07;5.57;;;4.65;;
10410;SDS011;5251;52.112;8.606;2023-09-18T04:08:32;4.80;;;4.30;;
10410;SDS011;5251;52.112;8.606;2023-09-18T04:10:58;5.15;;;4.40;;
10410;SDS011;5251;52.112;8.606;2023-09-18T04:13:24;5.43;;;4.13;;
10410;SDS011;5251;52.112;8.606;2023-09-18T04:15:50;5.63;;;4.28;;
10410;SDS011;5251;52.112;8.606;2023-09-18T04:18:16;4.47;;;4.07;;
10410;SDS011;5251;52.112;8.606;2023-09-18T04:20:42;5.93;;;4.43;;
10410;SDS011;5251;52.112;8.606;2023-09-18T04:23:18;5.65;;;4.43;;
10410;SDS011;5251;52.112;8.606;2023-09-18T04:25:45;4.57;;;4.18;;
10410;SDS011;5251;52.112;8.606;2023-09-18T04:28:11;4.80;;;4.28;;
10410;SDS011;5251;52.112;8.606;2023-09-18T04:30:38;5.50;;;4.15;;
10410;SDS011;5251;52.112;8.606;2023-09-18T04:33:03;5.68;;;4.43;;
10410;SDS011;5251;52.112;8.606;2023-09-18T04:35:29;5.65;;;3.95;;
10410;SDS011;5251;52.112;8.606;2023-09-18T04:37:56;5.85;;;4.25;;
10410;SDS011;5251;52.112;8.606;2023-09-18T04:40:24;5.82;;;4.20;;
10410;SDS011;5251;52.112;8.606;2023-09-18T04:42:51;4.20;;;3.80;;
10410;SDS011;5251;52.112;8.606;2023-09-18T04:45:17;6.22;;;4.28;;
10410;SDS011;5251;52.112;8.606;2023-09-18T04:47:43;4.82;;;3.67;;
10410;SDS011;5251;52.112;8.606;2023-09-18T04:50:09;4.53;;;4.13;;
10410;SDS011;5251;52.112;8.606;2023-09-18T04:52:35;5.07;;;3.80;;
10410;SDS011;5251;52.112;8.606;2023-09-18T04:55:01;6.32;;;4.20;;
10410;SDS011;5251;52.112;8.606;2023-09-18T04:57:28;4.75;;;4.20;;
10410;SDS011;5251;52.112;8.606;2023-09-18T04:59:53;5.15;;;4.00;;
10410;SDS011;5251;52.112;8.606;2023-09-18T05:02:19;4.88;;;3.80;;
10410;SDS011;5251;52.112;8.606;2023-09-18T05:04:45;6.88;;;4.40;;
10410;SDS011;5251;52.112;8.606;2023-09-18T05:07:10;5.38;;;4.47;;
10410;SDS011;5251;52.112;8.606;2023-09-18T05:09:36;6.18;;;4.45;;
10410;SDS011;5251;52.112;8.606;2023-09-18T05:12:04;4.63;;;4.07;;
10410;SDS011;5251;52.112;8.606;2023-09-18T05:14:30;4.60;;;4.03;;
10410;SDS011;5251;52.112;8.606;2023-09-18T05:16:55;4.55;;;3.90;;
10410;SDS011;5251;52.112;8.606;2023-09-18T05:19:21;4.82;;;4.30;;
10410;SDS011;5251;52.112;8.606;2023-09-18T05:21:46;4.50;;;4.10;;
10410;SDS011;5251;52.112;8.606;2023-09-18T05:24:13;5.13;;;4.25;;
10410;SDS011;5251;52.112;8.606;2023-09-18T05:26:38;4.68;;;4.18;;
10410;SDS011;5251;52.112;8.606;2023-09-18T05:29:04;4.78;;;4.10;;
10410;SDS011;5251;52.112;8.606;2023-09-18T05:31:29;4.72;;;4.20;;
10410;SDS011;5251;52.112;8.606;2023-09-18T05:33:55;5.80;;;4.20;;
10410;SDS011;5251;52.112;8.606;2023-09-18T05:36:21;5.50;;;4.15;;
10410;SDS011;5251;52.112;8.606;2023-09-18T05:38:46;4.82;;;4.00;;
10410;SDS011;5251;52.112;8.606;2023-09-18T05:41:12;6.93;;;4.43;;
10410;SDS011;5251;52.112;8.606;2023-09-18T05:43:37;5.15;;;4.20;;
10410;SDS011;5251;52.112;8.606;2023-09-18T05:46:03;4.30;;;3.90;;
10410;SDS011;5251;52.112;8.606;2023-09-18T05:48:29;4.47;;;4.07;;
10410;SDS011;5251;52.112;8.606;2023-09-18T05:50:54;4.47;;;4.07;;
10410;SDS011;5251;52.112;8.606;2023-09-18T05:53:20;6.38;;;4.30;;
10410;SDS011;5251;52.112;8.606;2023-09-18T05:55:46;5.00;;;4.38;;
10410;SDS011;5251;52.112;8.606;2023-09-18T05:58:12;5.75;;;4.30;;
10410;SDS011;5251;52.112;8.606;2023-09-18T06:00:39;5.55;;;4.13;;
10410;SDS011;5251;52.112;8.606;2023-09-18T06:03:05;5.85;;;4.32;;
10410;SDS011;5251;52.112;8.606;2023-09-18T06:05:31;6.13;;;4.55;;
10410;SDS011;5251;52.112;8.606;2023-09-18T06:07:58;5.10;;;4.20;;
10410;SDS011;5251;52.112;8.606;2023-09-18T06:10:24;5.80;;;4.32;;
10410;SDS011;5251;52.112;8.606;2023-09-18T06:12:50;6.40;;;4.80;;
10410;SDS011;5251;52.112;8.606;2023-09-18T06:15:15;5.13;;;4.20;;
10410;SDS011;5251;52.112;8.606;2023-09-18T06:17:42;4.97;;;4.47;;
10410;SDS011;5251;52.112;8.606;2023-09-18T06:20:09;6.82;;;4.82;;
10410;SDS011;5251;52.112;8.606;2023-09-18T06:22:39;4.63;;;4.03;;
10410;SDS011;5251;52.112;8.606;2023-09-18T06:25:05;6.75;;;4.78;;
10410;SDS011;5251;52.112;8.606;2023-09-18T06:27:35;4.70;;;4.30;;
10410;SDS011;5251;52.112;8.606;2023-09-18T06:30:02;5.32;;;4.28;;
10410;SDS011;5251;52.112;8.606;2023-09-18T06:32:29;6.30;;;4.78;;
10410;SDS011;5251;52.112;8.606;2023-09-18T06:34:54;4.50;;;4.10;;
10410;SDS011;5251;52.112;8.606;2023-09-18T06:37:22;4.50;;;4.05;;
10410;SDS011;5251;52.112;8.606;2023-09-18T06:39:48;5.18;;;4.72;;
10410;SDS011;5251;52.112;8.606;2023-09-18T06:42:13;6.95;;;4.43;;
10410;SDS011;5251;52.112;8.606;2023-09-18T06:44:39;5.03;;;3.78;;
10410;SDS011;5251;52.112;8.606;2023-09-18T06:47:05;4.60;;;4.10;;
10410;SDS011;5251;52.112;8.606;2023-09-18T06:49:30;4.43;;;3.75;;
10410;SDS011;5251;52.112;8.606;2023-09-18T06:51:56;5.75;;;4.00;;
10410;SDS011;5251;52.112;8.606;2023-09-18T06:54:21;4.40;;;4.00;;
10410;SDS011;5251;52.112;8.606;2023-09-18T06:56:47;4.68;;;3.88;;
10410;SDS011;5251;52.112;8.606;2023-09-18T06:59:13;4.75;;;3.80;;
10410;SDS011;5251;52.112;8.606;2023-09-18T07:01:39;4.20;;;3.80;;
10410;SDS011;5251;52.112;8.606;2023-09-18T07:04:06;3.88;;;3.50;;
10410;SDS011;5251;52.112;8.606;2023-09-18T07:06:31;6.93;;;3.80;;
10410;SDS011;5251;52.112;8.606;2023-09-18T07:08:57;4.35;;;3.67;;
10410;SDS011;5251;52.112;8.606;2023-09-18T07:11:22;5.20;;;3.70;;
10410;SDS011;5251;52.112;8.606;2023-09-18T07:13:48;4.55;;;3.88;;
10410;SDS011;5251;52.112;8.606;2023-09-18T07:16:14;5.57;;;3.78;;
10410;SDS011;5251;52.112;8.606;2023-09-18T07:18:39;4.72;;;3.70;;
10410;SDS011;5251;52.112;8.606;2023-09-18T07:21:05;5.47;;;3.85;;
10410;SDS011;5251;52.112;8.606;2023-09-18T07:23:31;5.00;;;3.58;;
10410;SDS011;5251;52.112;8.606;2023-09-18T07:25:56;5.97;;;3.67;;
10410;SDS011;5251;52.112;8.606;2023-09-18T07:28:23;4.63;;;3.30;;
10410;SDS011;5251;52.112;8.606;2023-09-18T07:30:49;4.70;;;3.70;;
10410;SDS011;5251;52.112;8.606;2023-09-18T07:33:15;3.67;;;3.28;;
10410;SDS011;5251;52.112;8.606;2023-09-18T07:35:47;4.00;;;3.28;;
10410;SDS011;5251;52.112;8.606;2023-09-18T07:38:14;4.15;;;3.10;;
10410;SDS011;5251;52.112;8.606;2023-09-18T07:40:40;3.42;;;3.10;;
10410;SDS011;5251;52.112;8.606;2023-09-18T07:43:05;3.95;;;3.00;;
10410;SDS011;5251;52.112;8.606;2023-09-18T07:45:31;4.45;;;3.00;;
10410;SDS011;5251;52.112;8.606;2023-09-18T07:47:57;4.57;;;2.90;;
10410;SDS011;5251;52.112;8.606;2023-09-18T07:50:22;6.55;;;2.88;;
10410;SDS011;5251;52.112;8.606;2023-09-18T07:52:48;3.55;;;2.88;;
10410;SDS011;5251;52.112;8.606;2023-09-18T07:55:14;5.53;;;3.08;;
10410;SDS011;5251;52.112;8.606;2023-09-18T07:57:40;3.47;;;2.65;;
10410;SDS011;5251;52.112;8.606;2023-09-18T08:00:06;4.90;;;3.10;;
10410;SDS011;5251;52.112;8.606;2023-09-18T08:02:37;3.67;;;2.72;;
10410;SDS011;5251;52.112;8.606;2023-09-18T08:05:04;6.03;;;2.50;;
10410;SDS011;5251;52.112;8.606;2023-09-18T08:07:30;5.70;;;2.58;;
10410;SDS011;5251;52.112;8.606;2023-09-18T08:09:56;3.70;;;2.40;;
10410;SDS011;5251;52.112;8.606;2023-09-18T08:12:23;3.78;;;2.20;;
10410;SDS011;5251;52.112;8.606;2023-09-18T08:14:49;3.50;;;2.50;;
10410;SDS011;5251;52.112;8.606;2023-09-18T08:17:15;5.18;;;2.25;;
10410;SDS011;5251;52.112;8.606;2023-09-18T08:19:41;4.05;;;2.15;;
10410;SDS011;5251;52.112;8.606;2023-09-18T08:22:09;6.18;;;2.40;;
10410;SDS011;5251;52.112;8.606;2023-09-18T08:24:36;3.13;;;1.90;;
10410;SDS011;5251;52.112;8.606;2023-09-18T08:27:02;3.30;;;2.20;;
10410;SDS011;5251;52.112;8.606;2023-09-18T08:29:28;4.60;;;2.20;;
10410;SDS011;5251;52.112;8.606;2023-09-18T08:31:54;2.83;;;2.00;;
10410;SDS011;5251;52.112;8.606;2023-09-18T08:34:19;4.47;;;2.20;;
10410;SDS011;5251;52.112;8.606;2023-09-18T08:36:45;5.57;;;1.92;;
10410;SDS011;5251;52.112;8.606;2023-09-18T08:39:10;4.85;;;2.00;;
10410;SDS011;5251;52.112;8.606;2023-09-18T08:41:37;5.72;;;1.92;;
10410;SDS011;5251;52.112;8.606;2023-09-18T08:44:07;2.95;;;1.70;;
10410;SDS011;5251;52.112;8.606;2023-09-18T08:46:34;4.50;;;2.00;;
10410;SDS011;5251;52.112;8.606;2023-09-18T08:49:00;3.53;;;2.03;;
10410;SDS011;5251;52.112;8.606;2023-09-18T08:51:26;4.55;;;2.15;;
10410;SDS011;5251;52.112;8.606;2023-09-18T08:53:53;3.55;;;1.80;;
10410;SDS011;5251;52.112;8.606;2023-09-18T08:56:20;3.35;;;1.88;;
10410;SDS011;5251;52.112;8.606;2023-09-18T08:58:46;4.88;;;1.98;;
10410;SDS011;5251;52.112;8.606;2023-09-18T09:01:12;2.88;;;2.00;;
10410;SDS011;5251;52.112;8.606;2023-09-18T09:03:39;2.97;;;1.80;;
10410;SDS011;5251;52.112;8.606;2023-09-18T09:06:07;3.83;;;1.80;;
10410;SDS011;5251;52.112;8.606;2023-09-18T09:08:34;2.33;;;1.63;;
10410;SDS011;5251;52.112;8.606;2023-09-18T09:11:01;3.78;;;2.03;;
10410;SDS011;5251;52.112;8.606;2023-09-18T09:13:27;5.57;;;2.35;;
10410;SDS011;5251;52.112;8.606;2023-09-18T09:15:53;4.53;;;2.03;;
10410;SDS011;5251;52.112;8.606;2023-09-18T09:18:23;5.63;;;2.00;;
10410;SDS011;5251;52.112;8.606;2023-09-18T09:21:03;4.05;;;1.95;;
10410;SDS011;5251;52.112;8.606;2023-09-18T09:23:44;2.85;;;1.65;;
10410;SDS011;5251;52.112;8.606;2023-09-18T09:26:17;2.90;;;1.60;;
10410;SDS011;5251;52.112;8.606;2023-09-18T09:28:44;5.32;;;1.70;;
10410;SDS011;5251;52.112;8.606;2023-09-18T09:31:11;2.60;;;1.52;;
10410;SDS011;5251;52.112;8.606;2023-09-18T09:33:50;2.78;;;1.60;;
10410;SDS011;5251;52.112;8.606;2023-09-18T09:36:18;4.10;;;1.58;;
10410;SDS011;5251;52.112;8.606;2023-09-18T09:38:44;3.72;;;1.67;;
10410;SDS011;5251;52.112;8.606;2023-09-18T09:41:13;2.45;;;1.55;;
10410;SDS011;5251;52.112;8.606;2023-09-18T09:43:41;2.65;;;1.90;;
10410;SDS011;5251;52.112;8.606;2023-09-18T09:46:14;4.47;;;1.80;;
10410;SDS011;5251;52.112;8.606;2023-09-18T09:48:59;3.28;;;1.73;;
10410;SDS011;5251;52.112;8.606;2023-09-18T09:51:26;5.07;;;1.60;;
10410;SDS011;5251;52.112;8.606;2023-09-18T09:53:53;4.68;;;1.85;;
10410;SDS011;5251;52.112;8.606;2023-09-18T09:56:19;2.05;;;1.38;;
10410;SDS011;5251;52.112;8.606;2023-09-18T09:59:05;2.85;;;1.88;;
10410;SDS011;5251;52.112;8.606;2023-09-18T10:01:34;4.80;;;1.85;;
10410;SDS011;5251;52.112;8.606;2023-09-18T10:04:12;3.25;;;1.40;;
10410;SDS011;5251;52.112;8.606;2023-09-18T10:06:40;3.67;;;1.75;;
10410;SDS011;5251;52.112;8.606;2023-09-18T10:09:08;4.95;;;1.58;;
10410;SDS011;5251;52.112;8.606;2023-09-18T10:11:40;3.03;;;1.63;;
10410;SDS011;5251;52.112;8.606;2023-09-18T10:14:19;2.40;;;1.45;;
10410;SDS011;5251;52.112;8.606;2023-09-18T10:16:53;2.97;;;1.40;;
10410;SDS011;5251;52.112;8.606;2023-09-18T10:19:32;1.42;;;1.30;;
10410;SDS011;5251;52.112;8.606;2023-09-18T10:24:46;3.72;;;1.90;;
10410;SDS011;5251;52.112;8.606;2023-09-18T10:27:14;2.13;;;1.35;;
10410;SDS011;5251;52.112;8.606;2023-09-18T10:29:42;3.92;;;1.55;;
10410;SDS011;5251;52.112;8.606;2023-09-18T10:32:10;3.58;;;1.73;;
10410;SDS011;5251;52.112;8.606;2023-09-18T10:34:36;2.97;;;1.73;;
10410;SDS011;5251;52.112;8.606;2023-09-18T10:37:03;4.05;;;1.52;;
10410;SDS011;5251;52.112;8.606;2023-09-18T10:39:35;2.28;;;1.42;;
10410;SDS011;5251;52.112;8.606;2023-09-18T10:42:04;3.53;;;1.70;;
10410;SDS011;5251;52.112;8.606;2023-09-18T10:44:32;4.32;;;1.58;;
10410;SDS011;5251;52.112;8.606;2023-09-18T10:46:59;2.53;;;1.38;;
10410;SDS011;5251;52.112;8.606;2023-09-18T10:49:28;3.90;;;1.70;;
10410;SDS011;5251;52.112;8.606;2023-09-18T10:51:55;2.45;;;1.50;;
10410;SDS011;5251;52.112;8.606;2023-09-18T10:54:22;3.03;;;1.70;;
10410;SDS011;5251;52.112;8.606;2023-09-18T10:56:49;2.63;;;1.58;;
10410;SDS011;5251;52.112;8.606;2023-09-18T10:59:16;2.30;;;1.60;;
10410;SDS011;5251;52.112;8.606;2023-09-18T11:01:42;1.83;;;1.48;;
10410;SDS011;5251;52.112;8.606;2023-09-18T11:04:09;2.10;;;1.58;;
10410;SDS011;5251;52.112;8.606;2023-09-18T11:09:24;2.85;;;1.42;;
10410;SDS011;5251;52.112;8.606;2023-09-18T11:11:52;3.78;;;1.63;;
10410;SDS011;5251;52.112;8.606;2023-09-18T11:14:45;2.40;;;1.40;;
10410;SDS011;5251;52.112;8.606;2023-09-18T11:17:30;3.03;;;1.65;;
10410;SDS011;5251;52.112;8.606;2023-09-18T11:22:37;2.50;;;1.40;;
10410;SDS011;5251;52.112;8.606;2023-09-18T11:27:59;2.25;;;1.50;;
10410;SDS011;5251;52.112;8.606;2023-09-18T11:30:27;3.50;;;1.50;;
10410;SDS011;5251;52.112;8.606;2023-09-18T11:32:53;2.33;;;1.58;;
10410;SDS011;5251;52.112;8.606;2023-09-18T11:35:20;5.68;;;1.70;;
10410;SDS011;5251;52.112;8.606;2023-09-18T11:37:46;3.55;;;1.80;;
10410;SDS011;5251;52.112;8.606;2023-09-18T11:40:31;2.65;;;1.58;;
10410;SDS011;5251;52.112;8.606;2023-09-18T11:45:55;4.05;;;1.90;;
10410;SDS011;5251;52.112;8.606;2023-09-18T11:48:25;3.45;;;1.63;;
10410;SDS011;5251;52.112;8.606;2023-09-18T11:50:55;2.45;;;1.58;;
10410;SDS011;5251;52.112;8.606;2023-09-18T11:53:23;2.85;;;1.70;;
10410;SDS011;5251;52.112;8.606;2023-09-18T11:55:49;2.95;;;1.67;;
10410;SDS011;5251;52.112;8.606;2023-09-18T11:58:15;1.88;;;1.60;;
10410;SDS011;5251;52.112;8.606;2023-09-18T12:00:41;2.45;;;1.60;;
10410;SDS011;5251;52.112;8.606;2023-09-18T12:03:16;4.47;;;1.83;;
10410;SDS011;5251;52.112;8.606;2023-09-18T12:05:50;3.22;;;1.70;;
10410;SDS011;5251;52.112;8.606;2023-09-18T12:08:18;1.92;;;1.35;;
10410;SDS011;5251;52.112;8.606;2023-09-18T12:10:43;2.15;;;1.50;;
10410;SDS011;5251;52.112;8.606;2023-09-18T12:13:09;2.40;;;1.70;;
10410;SDS011;5251;52.112;8.606;2023-09-18T12:15:36;1.60;;;1.50;;
10410;SDS011;5251;52.112;8.606;2023-09-18T12:18:05;2.55;;;1.40;;
10410;SDS011;5251;52.112;8.606;2023-09-18T12:20:31;2.08;;;1.40;;
10410;SDS011;5251;52.112;8.606;2023-09-18T12:22:59;2.83;;;1.75;;
10410;SDS011;5251;52.112;8.606;2023-09-18T12:25:25;2.10;;;1.40;;
10410;SDS011;5251;52.112;8.606;2023-09-18T12:27:51;3.30;;;1.80;;
10410;SDS011;5251;52.112;8.606;2023-09-18T12:30:18;1.92;;;1.40;;
10410;SDS011;5251;52.112;8.606;2023-09-18T12:32:45;2.40;;;1.67;;
10410;SDS011;5251;52.112;8.606;2023-09-18T12:35:13;3.00;;;1.48;;
10410;SDS011;5251;52.112;8.606;2023-09-18T12:37:39;2.22;;;1.50;;
10410;SDS011;5251;52.112;8.606;2023-09-18T12:40:06;2.30;;;1.60;;
10410;SDS011;5251;52.112;8.606;2023-09-18T12:42:45;1.38;;;1.27;;
10410;SDS011;5251;52.112;8.606;2023-09-18T12:45:11;4.22;;;1.50;;
10410;SDS011;5251;52.112;8.606;2023-09-18T12:47:37;1.55;;;1.30;;
10410;SDS011;5251;52.112;8.606;2023-09-18T12:50:04;3.08;;;1.70;;
10410;SDS011;5251;52.112;8.606;2023-09-18T12:52:36;2.35;;;1.45;;
10410;SDS011;5251;52.112;8.606;2023-09-18T12:55:01;2.80;;;1.30;;
10410;SDS011;5251;52.112;8.606;2023-09-18T12:57:30;2.20;;;1.30;;
10410;SDS011;5251;52.112;8.606;2023-09-18T12:59:57;3.65;;;1.50;;
10410;SDS011;5251;52.112;8.606;2023-09-18T13:02:23;2.47;;;1.40;;
10410;SDS011;5251;52.112;8.606;2023-09-18T13:04:52;4.40;;;1.83;;
10410;SDS011;5251;52.112;8.606;2023-09-18T13:07:20;4.97;;;1.80;;
10410;SDS011;5251;52.112;8.606;2023-09-18T13:09:59;2.95;;;1.30;;
10410;SDS011;5251;52.112;8.606;2023-09-18T13:12:46;3.13;;;1.63;;
10410;SDS011;5251;52.112;8.606;2023-09-18T13:15:24;2.65;;;1.38;;
10410;SDS011;5251;52.112;8.606;2023-09-18T13:17:54;4.53;;;1.83;;
10410;SDS011;5251;52.112;8.606;2023-09-18T13:20:22;3.80;;;1.30;;
10410;SDS011;5251;52.112;8.606;2023-09-18T13:22:54;1.73;;;1.20;;
10410;SDS011;5251;52.112;8.606;2023-09-18T13:25:21;2.88;;;1.70;;
10410;SDS011;5251;52.112;8.606;2023-09-18T13:27:54;2.13;;;1.60;;
10410;SDS011;5251;52.112;8.606;2023-09-18T13:30:20;2.53;;;1.60;;
10410;SDS011;5251;52.112;8.606;2023-09-18T13:32:47;3.33;;;1.40;;
10410;SDS011;5251;52.112;8.606;2023-09-18T13:35:17;5.20;;;1.40;;
10410;SDS011;5251;52.112;8.606;2023-09-18T13:37:43;2.58;;;1.45;;
10410;SDS011;5251;52.112;8.606;2023-09-18T13:40:10;2.60;;;1.70;;
10410;SDS011;5251;52.112;8.606;2023-09-18T13:42:36;3.58;;;1.70;;
10410;SDS011;5251;52.112;8.606;2023-09-18T13:45:04;1.95;;;1.25;;
10410;SDS011;5251;52.112;8.606;2023-09-18T13:47:31;2.20;;;1.40;;
10410;SDS011;5251;52.112;8.606;2023-09-18T13:49:59;2.88;;;1.40;;
10410;SDS011;5251;52.112;8.606;2023-09-18T13:52:28;2.78;;;1.42;;
10410;SDS011;5251;52.112;8.606;2023-09-18T13:54:55;1.92;;;1.20;;
10410;SDS011;5251;52.112;8.606;2023-09-18T13:57:20;2.88;;;1.40;;
10410;SDS011;5251;52.112;8.606;2023-09-18T13:59:47;1.73;;;1.20;;
10410;SDS011;5251;52.112;8.606;2023-09-18T14:02:14;2.25;;;1.40;;
10410;SDS011;5251;52.112;8.606;2023-09-18T14:04:40;1.23;;;1.13;;
10410;SDS011;5251;52.112;8.606;2023-09-18T14:07:07;2.20;;;1.45;;
10410;SDS011;5251;52.112;8.606;2023-09-18T14:09:33;1.98;;;1.20;;
10410;SDS011;5251;52.112;8.606;2023-09-18T14:11:59;1.92;;;1.40;;
10410;SDS011;5251;52.112;8.606;2023-09-18T14:14:26;3.22;;;1.40;;
10410;SDS011;5251;52.112;8.606;2023-09-18T14:16:51;1.45;;;1.20;;
10410;SDS011;5251;52.112;8.606;2023-09-18T14:19:18;1.35;;;1.17;;
10410;SDS011;5251;52.112;8.606;2023-09-18T14:21:44;2.28;;;1.30;;
10410;SDS011;5251;52.112;8.606;2023-09-18T14:24:10;1.98;;;1.20;;
10410;SDS011;5251;52.112;8.606;2023-09-18T14:26:36;5.07;;;1.35;;
10410;SDS011;5251;52.112;8.606;2023-09-18T14:29:08;2.33;;;1.42;;
10410;SDS011;5251;52.112;8.606;2023-09-18T14:31:38;3.00;;;1.50;;
10410;SDS011;5251;52.112;8.606;2023-09-18T14:34:04;2.88;;;1.48;;
10410;SDS011;5251;52.112;8.606;2023-09-18T14:36:30;2.70;;;1.30;;
10410;SDS011;5251;52.112;8.606;2023-09-18T14:38:58;2.70;;;1.23;;
10410;SDS011;5251;52.112;8.606;2023-09-18T14:41:27;1.77;;;1.30;;
10410;SDS011;5251;52.112;8.606;2023-09-18T14:43:52;2.38;;;1.35;;
10410;SDS011;5251;52.112;8.606;2023-09-18T14:46:18;5.70;;;1.75;;
10410;SDS011;5251;52.112;8.606;2023-09-18T14:48:44;2.30;;;1.25;;
10410;SDS011;5251;52.112;8.606;2023-09-18T14:51:11;1.95;;;1.30;;
10410;SDS011;5251;52.112;8.606;2023-09-18T14:53:36;2.15;;;1.48;;
10410;SDS011;5251;52.112;8.606;2023-09-18T14:56:02;1.83;;;1.48;;
10410;SDS011;5251;52.112;8.606;2023-09-18T14:58:29;2.20;;;1.50;;
10410;SDS011;5251;52.112;8.606;2023-09-18T15:00:55;1.90;;;1.55;;
10410;SDS011;5251;52.112;8.606;2023-09-18T15:03:21;2.05;;;1.40;;
10410;SDS011;5251;52.112;8.606;2023-09-18T15:05:49;3.63;;;1.30;;
10410;SDS011;5251;52.112;8.606;2023-09-18T15:08:16;3.38;;;1.33;;
10410;SDS011;5251;52.112;8.606;2023-09-18T15:10:43;1.70;;;1.60;;
10410;SDS011;5251;52.112;8.606;2023-09-18T15:13:09;2.10;;;1.30;;
10410;SDS011;5251;52.112;8.606;2023-09-18T15:15:34;2.55;;;1.50;;